Time;durP1;ratioP1;P1;durP2;ratioP2;P2;SDS_P1;SDS_P2;PMS_P1;PMS_P2;Temp;Humidity;BMP_temperature;BMP_pressure;BME280_temperature;BME280_humidity;BME280_pressure;Samples;Min_cycle;Max_cycle;Signal;HPM_P1;HPM_P2
2023/01/05 00:01:19;;;;;;;1.20;1.10;;;9.70;99.90;;;8.77;100.00;97772.19;5048934;28;20412;-76
2023/01/05 00:03:45;;;;;;;1.10;1.02;;;9.60;99.90;;;8.68;100.00;97776.22;5051815;28;20407;-76
2023/01/05 00:06:13;;;;;;;1.00;1.00;;;9.60;99.90;;;8.69;100.00;97762.78;5053280;28;20440;-76
2023/01/05 00:08:40;;;;;;;1.13;1.02;;;9.70;99.90;;;8.69;100.00;97752.22;5053081;28;20413;-76
2023/01/05 00:22:30;;;;;;;1.00;1.00;;;9.50;99.90;;;8.54;100.00;97752.69;5052373;28;20443;-76
2023/01/05 00:24:56;;;;;;;1.20;1.00;;;9.50;99.90;;;8.60;100.00;97748.31;5052505;28;20535;-76
2023/01/05 00:27:22;;;;;;;1.10;1.00;;;9.50;99.90;;;8.57;100.00;97755.91;5052825;28;20413;-76
2023/01/05 00:29:49;;;;;;;1.13;1.00;;;9.50;99.90;;;8.63;100.00;97755.78;5052743;28;20419;-76
2023/01/05 00:32:15;;;;;;;1.05;1.00;;;9.50;99.90;;;8.67;100.00;97753.47;5034215;28;20811;-75
2023/01/05 00:34:41;;;;;;;0.93;0.93;;;9.60;99.90;;;8.84;100.00;97755.22;5052374;28;20441;-75
2023/01/05 00:37:07;;;;;;;1.20;0.93;;;9.70;99.90;;;9.00;100.00;97759.00;5034708;28;20413;-75
2023/01/05 00:39:32;;;;;;;1.70;1.00;;;9.80;99.90;;;9.00;100.00;97742.34;5052677;28;20409;-75
2023/01/05 00:41:58;;;;;;;1.20;1.10;;;9.80;99.90;;;8.87;100.00;97764.53;5052003;28;20411;-75
2023/01/05 00:44:24;;;;;;;1.40;0.90;;;9.80;99.90;;;8.85;100.00;97740.19;5051995;28;20472;-76
2023/01/05 00:46:53;;;;;;;0.90;0.90;;;9.80;99.90;;;8.81;100.00;97745.09;5052484;28;20416;-76
2023/01/05 00:49:19;;;;;;;1.00;1.00;;;9.70;99.90;;;8.70;100.00;97740.66;5052382;28;20500;-76
2023/01/05 00:51:44;;;;;;;1.10;1.00;;;9.70;99.90;;;8.71;100.00;97744.91;5051894;28;20489;-76
2023/01/05 00:54:10;;;;;;;1.00;1.00;;;9.60;99.90;;;8.91;100.00;97742.69;5052313;28;20408;-76
2023/01/05 00:56:36;;;;;;;1.33;1.00;;;9.70;99.90;;;8.87;100.00;97746.81;5052376;28;20409;-76
2023/01/05 00:59:02;;;;;;;1.30;1.20;;;9.80;99.90;;;8.90;100.00;97756.94;5034442;28;20956;-76
2023/01/05 01:01:28;;;;;;;0.80;0.80;;;9.80;99.90;;;8.88;100.00;97752.91;5051681;28;20405;-76
2023/01/05 01:03:56;;;;;;;1.00;1.00;;;9.80;99.90;;;8.90;100.00;97749.00;5051795;28;20758;-76
2023/01/05 01:06:22;;;;;;;0.90;0.90;;;9.80;99.90;;;9.03;100.00;97745.31;5052231;28;20406;-76
2023/01/05 01:08:48;;;;;;;1.00;1.00;;;9.80;99.90;;;9.03;100.00;97752.44;5052097;28;20440;-76
2023/01/05 01:11:15;;;;;;;0.93;0.93;;;9.90;99.90;;;8.87;100.00;97759.25;5033785;28;20907;-77
2023/01/05 01:13:42;;;;;;;2.25;1.02;;;9.80;99.90;;;8.90;100.00;97758.75;5050839;28;20864;-76
2023/01/05 01:16:12;;;;;;;0.98;0.98;;;9.80;99.90;;;9.11;100.00;97752.06;5051514;28;20405;-76
2023/01/05 01:18:39;;;;;;;1.10;1.00;;;9.90;99.90;;;8.96;100.00;97757.84;5051890;28;20409;-76
2023/01/05 01:21:08;;;;;;;0.90;0.90;;;9.90;99.90;;;8.95;100.00;97771.28;5051897;28;20539;-76
2023/01/05 01:23:38;;;;;;;1.27;1.10;;;9.80;99.90;;;8.84;100.00;97771.06;5050971;28;20452;-76
2023/01/05 01:26:05;;;;;;;0.90;0.90;;;9.70;99.90;;;8.98;100.00;97768.97;5033707;28;20488;-76
2023/01/05 01:28:31;;;;;;;1.00;0.95;;;9.80;99.90;;;9.07;100.00;97751.75;5051623;28;20418;-77
2023/01/05 01:30:58;;;;;;;1.63;0.90;;;9.90;99.90;;;8.96;100.00;97739.34;5051672;28;20409;-76
2023/01/05 01:33:24;;;;;;;0.80;0.80;;;9.80;99.90;;;8.94;100.00;97736.16;5050795;28;20516;-76
2023/01/05 01:35:49;;;;;;;1.27;1.10;;;9.80;99.90;;;8.85;100.00;97746.25;5033404;28;20927;-75
2023/01/05 01:38:17;;;;;;;1.00;0.90;;;9.80;99.90;;;9.03;100.00;97752.44;5051577;28;20903;-76
2023/01/05 01:40:45;;;;;;;0.90;0.90;;;9.90;99.90;;;9.00;100.00;97729.94;5051400;28;20887;-76
2023/01/05 01:43:13;;;;;;;1.05;0.88;;;10.00;99.90;;;8.86;100.00;97737.31;5032615;28;20435;-76
2023/01/05 01:45:40;;;;;;;0.88;0.88;;;9.80;99.90;;;8.94;100.00;97725.59;5051177;28;20410;-76
2023/01/05 01:48:08;;;;;;;0.90;0.90;;;9.80;99.90;;;8.89;100.00;97720.19;5051320;28;20421;-76
2023/01/05 01:50:40;;;;;;;0.90;0.90;;;9.80;99.90;;;8.89;100.00;97734.19;5051319;28;20398;-76
2023/01/05 01:53:10;;;;;;;1.10;1.00;;;9.80;99.90;;;9.04;100.00;97720.50;5050456;28;20669;-76
2023/01/05 01:55:38;;;;;;;0.80;0.80;;;9.80;99.90;;;9.04;100.00;97723.16;5051207;28;20417;-76
2023/01/05 01:58:10;;;;;;;1.00;0.90;;;9.90;99.90;;;8.90;100.00;97719.16;5051291;28;20402;-76
2023/01/05 02:00:37;;;;;;;0.90;0.90;;;9.80;99.90;;;8.87;100.00;97722.28;5051207;28;20773;-76
2023/01/05 02:03:03;;;;;;;0.80;0.80;;;9.80;99.90;;;8.91;100.00;97726.84;5050169;28;20405;-76
2023/01/05 02:05:32;;;;;;;0.80;0.80;;;9.80;99.90;;;8.88;100.00;97727.31;5051038;28;20445;-76
2023/01/05 02:07:58;;;;;;;0.87;0.87;;;9.80;99.90;;;8.80;100.00;97732.13;5033218;28;20911;-76
2023/01/05 02:10:41;;;;;;;0.80;0.80;;;9.70;99.90;;;8.78;100.00;97726.31;5051077;28;20408;-76
2023/01/05 02:13:28;;;;;;;1.40;0.90;;;9.70;99.90;;;8.86;100.00;97732.03;5050018;28;20459;-76
2023/01/05 02:16:04;;;;;;;0.80;0.80;;;9.80;99.90;;;8.85;100.00;97734.91;5050911;28;20454;-76
2023/01/05 02:18:52;;;;;;;1.40;0.80;;;9.80;99.90;;;8.98;100.00;97732.00;5050880;28;20488;-75
2023/01/05 02:21:29;;;;;;;0.90;0.80;;;9.90;99.90;;;9.02;100.00;97721.81;5032509;28;20798;-76
2023/01/05 02:24:43;;;;;;;0.90;0.90;;;9.90;99.90;;;8.97;100.00;97717.19;5050569;28;20397;-77
2023/01/05 02:27:39;;;;;;;0.80;0.80;;;9.90;99.90;;;8.81;100.00;97712.63;5050553;28;20859;-76
2023/01/05 02:30:59;;;;;;;0.80;0.80;;;9.80;99.90;;;8.77;100.00;97714.94;5050441;28;20918;-76
2023/01/05 02:33:40;;;;;;;0.90;0.80;;;9.70;99.90;;;8.94;100.00;97707.13;5049596;28;20759;-76
2023/01/05 02:36:16;;;;;;;2.53;1.00;;;9.80;99.90;;;8.89;100.00;97707.00;5050540;28;20544;-76
2023/01/05 02:38:51;;;;;;;0.80;0.80;;;9.80;99.90;;;8.81;100.00;97699.44;5032613;28;20471;-76
2023/01/05 02:41:24;;;;;;;0.80;0.80;;;9.80;99.90;;;8.78;100.00;97692.00;5032111;28;20768;-76
2023/01/05 02:43:50;;;;;;;0.82;0.82;;;9.70;99.90;;;8.91;100.00;97708.38;5049945;28;20871;-76
2023/01/05 02:46:17;;;;;;;0.73;0.73;;;9.80;99.90;;;8.86;100.00;97705.63;5032491;28;20490;-76
2023/01/05 02:48:45;;;;;;;0.70;0.70;;;9.80;99.90;;;8.88;100.00;97708.81;5032461;28;20425;-76
2023/01/05 02:51:17;;;;;;;0.80;0.80;;;9.80;99.90;;;9.02;100.00;97705.97;5050187;28;20397;-76
2023/01/05 02:53:48;;;;;;;0.80;0.80;;;9.80;99.90;;;9.02;100.00;97705.97;5049773;28;20922;-76
2023/01/05 02:56:19;;;;;;;1.50;0.70;;;9.90;99.90;;;9.17;100.00;97706.25;5050131;28;20899;-76
2023/01/05 02:58:51;;;;;;;0.80;0.80;;;10.00;99.90;;;9.00;100.00;97698.25;5050146;28;20480;-76
2023/01/05 03:01:24;;;;;;;0.73;0.70;;;10.00;99.90;;;9.16;100.00;97700.19;5049643;28;20422;-76
2023/01/05 03:03:53;;;;;;;0.70;0.70;;;10.00;99.90;;;9.05;100.00;97697.56;5031902;28;20425;-76
2023/01/05 03:06:27;;;;;;;0.80;0.70;;;10.00;99.90;;;9.12;100.00;97708.78;5049992;28;20441;-76
2023/01/05 03:08:58;;;;;;;0.80;0.80;;;10.00;99.90;;;9.18;100.00;97702.56;5032188;28;20422;-76
2023/01/05 03:14:23;;;;;;;0.80;0.80;;;10.00;99.90;;;9.04;100.00;97699.38;5049659;28;20389;-76
2023/01/05 03:16:54;;;;;;;0.80;0.80;;;10.00;99.90;;;9.06;100.00;97705.25;5050003;28;20771;-76
2023/01/05 03:19:38;;;;;;;2.67;0.70;;;10.00;99.90;;;9.05;100.00;97708.13;5049883;28;20410;-76
2023/01/05 03:36:27;;;;;;;0.70;0.70;;;9.90;99.90;;;9.11;100.00;97709.81;5050112;28;20739;-76
2023/01/05 03:38:57;;;;;;;0.73;0.73;;;10.00;99.90;;;9.05;100.00;97706.28;5053106;28;20404;-76
2023/01/05 03:41:25;;;;;;;1.50;0.90;;;10.00;99.90;;;9.09;100.00;97702.16;5053286;28;20411;-76
2023/01/05 03:43:52;;;;;;;0.80;0.80;;;10.00;99.90;;;9.03;100.00;97705.69;5053515;28;20402;-76
2023/01/05 03:46:21;;;;;;;0.80;0.80;;;9.90;99.90;;;9.16;100.00;97707.31;5053583;28;20474;-76
2023/01/05 03:48:49;;;;;;;0.77;0.77;;;10.00;99.90;;;9.08;100.00;97712.94;5053659;28;20409;-76
2023/01/05 03:51:15;;;;;;;0.70;0.70;;;10.00;99.90;;;9.02;100.00;97709.38;5053160;28;20404;-76
2023/01/05 03:53:42;;;;;;;0.80;0.80;;;10.00;99.90;;;8.99;100.00;97707.22;5053208;28;20434;-76
2023/01/05 03:56:08;;;;;;;0.80;0.80;;;9.90;99.90;;;9.13;100.00;97702.47;5035512;28;20762;-76
2023/01/05 03:58:34;;;;;;;0.90;0.90;;;9.90;99.90;;;9.06;100.00;97707.09;5053539;28;20403;-76
2023/01/05 04:01:00;;;;;;;0.87;0.87;;;10.00;99.90;;;9.12;100.00;97708.78;5053412;28;20470;-76
2023/01/05 04:03:26;;;;;;;0.75;0.70;;;10.00;99.90;;;9.11;100.00;97701.91;5034502;28;20412;-77
2023/01/05 04:05:53;;;;;;;0.73;0.73;;;10.00;99.90;;;9.04;100.00;97696.75;5053267;28;20405;-77
2023/01/05 04:08:19;;;;;;;0.77;0.77;;;10.00;99.90;;;9.00;100.00;97700.09;5035401;28;20417;-76
2023/01/05 04:10:45;;;;;;;0.70;0.70;;;9.90;99.90;;;8.96;100.00;97704.22;5053344;28;20488;-76
2023/01/05 04:13:11;;;;;;;1.50;0.80;;;9.90;99.90;;;8.95;100.00;97698.13;5052298;28;20767;-76
2023/01/05 04:15:38;;;;;;;1.45;0.80;;;9.90;99.90;;;8.92;100.00;97709.97;5053096;28;20805;-76
2023/01/05 04:18:04;;;;;;;1.60;0.70;;;9.80;99.90;;;8.92;100.00;97703.91;5053047;28;20401;-76
2023/01/05 04:20:30;;;;;;;0.73;0.73;;;9.80;99.90;;;8.88;100.00;97705.38;5053160;28;20471;-76
2023/01/05 04:22:57;;;;;;;0.70;0.70;;;9.80;99.90;;;8.87;100.00;97699.28;5034364;28;20405;-76
2023/01/05 04:25:23;;;;;;;0.60;0.60;;;9.80;99.90;;;8.85;100.00;97705.88;5034967;28;20405;-76
2023/01/05 04:27:49;;;;;;;0.77;0.77;;;9.80;99.90;;;8.91;100.00;97707.56;5052906;28;20397;-76
2023/01/05 04:30:15;;;;;;;0.80;0.80;;;9.80;99.90;;;8.92;100.00;97703.91;5053245;28;20802;-76
2023/01/05 04:32:41;;;;;;;0.70;0.70;;;9.80;99.90;;;8.95;100.00;97702.63;5052022;28;20401;-76
2023/01/05 04:35:07;;;;;;;1.15;0.80;;;9.90;99.90;;;8.91;100.00;97700.47;5034733;28;21016;-76
2023/01/05 04:37:33;;;;;;;0.70;0.70;;;9.80;99.90;;;9.00;100.00;97705.38;5052857;28;20413;-76
2023/01/05 04:40:00;;;;;;;0.80;0.80;;;9.90;99.90;;;9.00;100.00;97703.53;5052706;28;20517;-76
2023/01/05 04:42:26;;;;;;;0.80;0.80;;;9.90;99.90;;;9.04;100.00;97694.09;5052109;28;20456;-76
2023/01/05 04:44:52;;;;;;;0.70;0.70;;;10.00;99.90;;;9.12;100.00;97701.66;5069506;22;20558;-77
2023/01/05 04:47:18;;;;;;;0.70;0.70;;;10.00;99.90;;;9.19;100.00;97704.16;5072546;28;20411;-76
2023/01/05 04:49:44;;;;;;;0.80;0.80;;;10.10;99.90;;;9.32;100.00;97699.41;5072346;28;20438;-76
2023/01/05 04:52:10;;;;;;;0.80;0.80;;;10.20;99.90;;;9.25;100.00;97706.69;5053917;28;20514;-77
2023/01/05 04:54:36;;;;;;;0.77;0.77;;;10.20;99.90;;;9.28;100.00;97710.69;5071969;28;20399;-76
2023/01/05 04:57:03;;;;;;;0.75;0.75;;;10.20;99.90;;;9.52;100.00;97709.59;5072304;28;20407;-77
2023/01/05 04:59:29;;;;;;;0.70;0.70;;;10.30;99.90;;;9.38;100.00;97708.25;5072359;28;20391;-76
2023/01/05 05:01:55;;;;;;;0.80;0.80;;;10.30;99.90;;;9.37;100.00;97713.78;5071672;28;20406;-77
2023/01/05 05:04:21;;;;;;;0.80;0.80;;;10.30;99.90;;;9.29;100.00;97713.13;5071852;28;20404;-76
2023/01/05 05:06:46;;;;;;;0.70;0.70;;;10.20;99.90;;;9.44;100.00;97714.44;5072256;28;20404;-76
2023/01/05 05:09:12;;;;;;;0.90;0.90;;;10.30;99.90;;;9.41;100.00;97715.69;5072088;28;20518;-77
2023/01/05 05:11:38;;;;;;;0.77;0.77;;;10.30;99.90;;;9.33;100.00;97721.34;5071576;28;20431;-77
2023/01/05 05:14:05;;;;;;;0.80;0.80;;;10.20;99.90;;;9.30;100.00;97721.84;5071754;28;20403;-77
2023/01/05 05:16:31;;;;;;;0.80;0.80;;;10.20;99.90;;;9.29;100.00;97736.88;5072047;28;20412;-77
2023/01/05 05:18:57;;;;;;;0.70;0.70;;;10.20;99.90;;;9.25;100.00;97730.44;5071983;28;20400;-76
2023/01/05 05:21:23;;;;;;;0.80;0.80;;;10.20;99.90;;;9.21;100.00;97729.31;5071451;28;20924;-76
2023/01/05 05:23:49;;;;;;;1.15;0.80;;;10.20;99.90;;;9.21;100.00;97739.09;5071556;28;20403;-76
2023/01/05 05:26:15;;;;;;;0.80;0.80;;;10.10;99.90;;;9.26;100.00;97741.81;5071694;28;20403;-77
2023/01/05 05:28:41;;;;;;;0.70;0.70;;;10.10;99.90;;;9.29;100.00;97750.09;5071924;28;20447;-77
2023/01/05 05:31:08;;;;;;;0.90;0.80;;;10.20;99.90;;;9.31;100.00;97740.09;5071783;28;20502;-76
2023/01/05 05:33:36;;;;;;;0.70;0.70;;;10.30;99.90;;;9.29;100.00;97754.56;5070959;28;20414;-76
2023/01/05 05:36:03;;;;;;;1.90;0.88;;;10.20;99.90;;;9.25;100.00;97758.69;5071678;28;20490;-77
2023/01/05 05:38:29;;;;;;;1.30;0.80;;;10.20;99.90;;;9.26;100.00;97758.47;5071819;28;20450;-77
2023/01/05 05:40:55;;;;;;;0.70;0.70;;;10.20;99.90;;;9.23;100.00;97750.22;5071542;28;20414;-76
2023/01/05 05:43:21;;;;;;;0.77;0.77;;;10.10;99.90;;;9.28;100.00;97766.16;5070739;28;20407;-77
2023/01/05 05:45:46;;;;;;;0.80;0.80;;;10.20;99.90;;;9.35;100.00;97773.97;5071387;28;20415;-77
2023/01/05 05:48:14;;;;;;;1.00;0.80;;;10.20;99.90;;;9.31;100.00;97777.09;5070086;28;20412;-76
2023/01/05 05:50:39;;;;;;;0.70;0.70;;;10.20;99.90;;;9.29;100.00;97781.00;5071298;28;20400;-76
2023/01/05 05:53:05;;;;;;;0.73;0.73;;;10.20;99.90;;;9.23;100.00;97781.94;5070358;28;20862;-76
2023/01/05 05:55:33;;;;;;;0.80;0.80;;;10.10;99.90;;;9.19;100.00;97771.00;5071313;28;20399;-76
2023/01/05 05:57:59;;;;;;;0.80;0.80;;;10.10;99.90;;;9.13;100.00;97786.97;5071354;28;20434;-77
2023/01/05 06:00:25;;;;;;;0.70;0.70;;;10.10;99.90;;;9.09;100.00;97791.94;5070809;28;20399;-77
2023/01/05 06:02:51;;;;;;;0.90;0.90;;;10.00;99.90;;;9.04;100.00;97789.16;5070425;28;20462;-77
2023/01/05 06:05:18;;;;;;;0.82;0.80;;;10.00;99.90;;;9.05;100.00;97793.41;5070977;28;20448;-77
2023/01/05 06:07:44;;;;;;;0.90;0.70;;;10.00;99.90;;;9.02;100.00;97803.66;5071054;28;20485;-77
2023/01/05 06:10:10;;;;;;;0.73;0.73;;;9.90;99.90;;;8.95;100.00;97806.38;5070877;28;20416;-77
2023/01/05 06:12:36;;;;;;;0.80;0.80;;;9.90;99.90;;;9.10;100.00;97812.00;5070059;28;20422;-77
2023/01/05 06:15:02;;;;;;;1.20;0.90;;;10.00;99.90;;;9.02;100.00;97812.34;5070807;28;20956;-77
2023/01/05 06:17:28;;;;;;;0.95;0.90;;;9.90;99.90;;;8.92;100.00;97815.59;5070795;28;20411;-77
2023/01/05 06:19:54;;;;;;;5.00;0.85;;;9.90;99.90;;;8.86;100.00;97824.44;5070760;28;20395;-77
2023/01/05 06:22:21;;;;;;;4.03;0.90;;;9.80;99.90;;;8.84;100.00;97821.22;5070225;28;20399;-77
2023/01/05 06:24:47;;;;;;;0.80;0.80;;;9.80;99.90;;;8.78;100.00;97835.31;5070286;28;20411;-77
2023/01/05 06:27:13;;;;;;;1.15;0.98;;;9.70;99.90;;;8.76;100.00;97837.38;5070889;28;20838;-77
2023/01/05 06:29:39;;;;;;;0.90;0.90;;;9.70;99.90;;;8.75;100.00;97841.03;5070498;28;20415;-77
2023/01/05 06:32:05;;;;;;;0.90;0.90;;;9.70;99.90;;;8.72;100.00;97838.06;5069912;28;20962;-77
2023/01/05 06:34:31;;;;;;;1.52;1.00;;;9.70;99.90;;;8.73;100.00;97845.75;5070044;28;20462;-77
2023/01/05 06:36:57;;;;;;;1.67;1.15;;;9.70;99.90;;;8.72;100.00;97849.41;5070214;28;20408;-77
2023/01/05 06:39:24;;;;;;;1.10;1.00;;;9.70;99.90;;;8.69;100.00;97841.97;5070421;28;20789;-77
2023/01/05 06:41:50;;;;;;;1.20;0.90;;;9.60;99.90;;;8.61;100.00;97847.56;5051984;28;20412;-77
2023/01/05 06:44:19;;;;;;;1.50;0.90;;;9.50;99.90;;;8.62;100.00;97854.47;5069870;28;20487;-77
2023/01/05 06:46:44;;;;;;;1.27;1.00;;;9.50;99.90;;;8.67;100.00;97851.94;5070277;28;20403;-77
2023/01/05 06:49:11;;;;;;;2.88;1.10;;;9.60;99.90;;;8.57;100.00;97862.22;5070250;28;20498;-77
2023/01/05 06:51:39;;;;;;;1.50;1.00;;;9.50;99.90;;;8.55;100.00;97864.31;5069707;28;20633;-77
2023/01/05 06:54:05;;;;;;;1.98;1.13;;;9.50;99.90;;;8.53;100.00;97859.25;5069757;28;20400;-76
2023/01/05 06:56:32;;;;;;;4.15;1.20;;;9.50;99.90;;;8.57;100.00;97846.41;5070089;28;20407;-76
2023/01/05 06:58:58;;;;;;;2.90;1.30;;;9.50;99.90;;;8.61;100.00;97871.31;5070050;28;20407;-77
2023/01/05 07:01:24;;;;;;;3.28;1.40;;;9.60;99.90;;;8.64;100.00;97878.00;5069656;28;20427;-77
2023/01/05 07:03:50;;;;;;;3.50;1.60;;;9.60;99.90;;;8.68;100.00;97884.41;5069800;28;20830;-77
2023/01/05 07:06:16;;;;;;;6.65;2.10;;;9.60;99.90;;;8.58;100.00;97877.03;5069900;28;20489;-77
2023/01/05 07:08:42;;;;;;;3.88;1.70;;;9.50;99.90;;;8.54;100.00;97892.53;5069943;28;20420;-77
2023/01/05 07:11:08;;;;;;;4.03;1.70;;;9.50;99.90;;;8.66;100.00;97886.47;5069935;28;20800;-77
2023/01/05 07:13:35;;;;;;;7.37;1.70;;;9.60;99.90;;;8.62;100.00;97882.69;5066852;28;20469;-77
2023/01/05 07:16:01;;;;;;;3.92;1.65;;;9.60;99.90;;;8.61;100.00;97887.16;5069809;28;20404;-77
2023/01/05 07:18:27;;;;;;;9.98;1.92;;;9.50;99.90;;;8.58;100.00;97889.41;5069884;28;20410;-77
2023/01/05 07:20:53;;;;;;;10.07;2.30;;;9.50;99.90;;;8.58;100.00;97889.41;5069911;28;20705;-77
2023/01/05 07:23:19;;;;;;;6.15;2.05;;;9.50;99.90;;;8.64;100.00;97894.63;5069115;28;20793;-77
2023/01/05 07:25:45;;;;;;;12.70;2.70;;;9.50;99.90;;;8.59;100.00;97881.28;5069730;28;20938;-78
2023/01/05 07:28:11;;;;;;;8.55;2.33;;;9.50;99.90;;;8.56;100.00;97889.66;5068549;28;20412;-76
2023/01/05 07:30:38;;;;;;;6.78;1.90;;;9.50;99.90;;;8.52;100.00;97884.03;5069780;28;20411;-77
2023/01/05 07:33:04;;;;;;;9.48;2.50;;;9.50;99.90;;;8.52;100.00;97891.94;5068803;28;20404;-76
2023/01/05 07:35:31;;;;;;;10.43;2.22;;;9.40;99.90;;;8.63;100.00;97902.75;5069684;28;20426;-77
2023/01/05 07:37:57;;;;;;;7.05;1.92;;;9.50;99.90;;;8.59;100.00;97889.22;5069551;28;20457;-77
2023/01/05 07:40:23;;;;;;;5.13;1.90;;;9.50;99.90;;;8.46;100.00;97892.84;5069582;28;20404;-76
2023/01/05 07:42:50;;;;;;;7.63;2.03;;;9.40;99.90;;;8.46;100.00;97895.50;5068820;28;20451;-77
2023/01/05 07:45:16;;;;;;;12.40;2.30;;;9.40;99.90;;;8.50;100.00;97898.47;5069282;28;20399;-77
2023/01/05 07:47:43;;;;;;;9.15;2.42;;;9.40;99.90;;;8.47;100.00;97897.09;5069602;28;20435;-76
2023/01/05 07:50:10;;;;;;;7.97;2.23;;;9.40;99.90;;;8.45;100.00;97896.50;5069537;28;20412;-77
2023/01/05 07:52:38;;;;;;;9.75;2.30;;;9.40;99.90;;;8.46;100.00;97898.13;5050558;28;20819;-77
2023/01/05 07:55:05;;;;;;;13.00;2.30;;;9.40;99.90;;;8.53;100.00;97905.94;5067998;28;20838;-76
2023/01/05 07:57:31;;;;;;;7.13;1.90;;;9.40;99.90;;;8.55;100.00;97917.09;5069799;28;20431;-77
2023/01/05 07:59:57;;;;;;;7.55;2.20;;;9.40;99.90;;;8.42;100.00;97912.78;5069463;28;20407;-77
2023/01/05 08:02:23;;;;;;;10.57;2.35;;;9.40;99.90;;;8.39;100.00;97918.53;5068764;28;20478;-77
2023/01/05 08:04:50;;;;;;;12.15;2.40;;;9.30;99.90;;;8.46;100.00;97913.16;5067710;28;20777;-76
2023/01/05 08:07:16;;;;;;;7.63;2.55;;;9.40;99.90;;;8.49;100.00;97925.91;5069328;28;20407;-77
2023/01/05 08:12:27;;;;;;;8.95;2.58;;;9.40;99.90;;;8.40;100.00;97937.78;5068839;28;20402;-76
2023/01/05 08:14:53;;;;;;;9.85;2.13;;;9.30;99.90;;;8.33;100.00;97935.25;5069026;28;20400;-77
2023/01/05 08:17:19;;;;;;;9.77;2.17;;;9.30;99.90;;;8.39;100.00;97942.25;5069264;28;20952;-76
2023/01/05 08:19:45;;;;;;;9.88;2.20;;;9.30;99.90;;;8.36;100.00;97937.41;5069302;28;20924;-77
2023/01/05 08:22:12;;;;;;;9.27;2.25;;;9.30;99.90;;;8.43;100.00;97958.44;5068540;28;20757;-76
2023/01/05 08:24:38;;;;;;;11.10;2.42;;;9.30;99.90;;;8.41;100.00;97945.50;5071365;28;20431;-77
2023/01/05 08:27:04;;;;;;;11.10;2.28;;;9.30;99.90;;;8.47;100.00;97949.88;5071614;28;20821;-76
2023/01/05 08:29:30;;;;;;;11.30;2.20;;;9.40;99.90;;;8.52;100.00;97951.81;5071560;28;20415;-77
2023/01/05 08:31:56;;;;;;;7.53;2.15;;;9.50;99.90;;;8.51;100.00;97955.47;5072093;28;20562;-77
2023/01/05 08:34:22;;;;;;;12.15;2.17;;;9.40;99.90;;;8.59;100.00;97957.00;5072248;28;20423;-77
2023/01/05 08:36:48;;;;;;;19.17;2.70;;;9.50;99.90;;;8.53;100.00;97958.72;5072788;28;20399;-77
2023/01/05 08:39:15;;;;;;;14.50;2.90;;;9.50;99.90;;;8.51;100.00;97968.69;5072714;28;20395;-76
2023/01/05 08:41:41;;;;;;;9.82;2.70;;;9.40;99.90;;;8.47;100.00;97968.34;5072246;28;20881;-76
2023/01/05 08:44:12;;;;;;;14.45;2.58;;;9.40;99.90;;;8.42;100.00;97965.53;5072360;28;20403;-77
2023/01/05 08:46:38;;;;;;;11.13;2.80;;;9.40;99.90;;;8.50;100.00;97983.69;5051842;28;20771;-74
2023/01/05 08:49:06;;;;;;;10.70;2.00;;;9.40;99.90;;;8.51;100.00;97973.94;5054358;28;20416;-74
2023/01/05 08:51:32;;;;;;;17.42;2.70;;;9.50;99.90;;;8.53;100.00;97969.25;5071965;28;20889;-73
2023/01/05 08:53:58;;;;;;;10.23;2.35;;;9.50;99.90;;;8.70;100.00;97975.53;5071991;28;20407;-76
2023/01/05 08:56:27;;;;;;;11.32;2.30;;;9.60;99.90;;;8.72;100.00;97973.44;5072512;28;20399;-75
2023/01/05 08:59:00;;;;;;;15.25;3.00;;;9.70;99.90;;;8.52;100.00;97981.66;5072283;28;20816;-75
2023/01/05 09:01:26;;;;;;;16.60;2.90;;;9.50;99.90;;;8.52;100.00;97980.84;5072227;28;20406;-75
2023/01/05 09:03:52;;;;;;;11.82;2.30;;;9.40;99.90;;;8.50;100.00;97986.34;5071945;28;20745;-76
2023/01/05 09:06:18;;;;;;;14.15;2.65;;;9.40;99.90;;;8.76;100.00;97997.59;5066223;28;20414;-75
2023/01/05 09:08:45;;;;;;;13.15;2.67;;;9.60;99.90;;;8.67;100.00;98001.56;5071696;28;20412;-75
2023/01/05 09:11:15;;;;;;;18.63;2.90;;;9.60;99.90;;;8.79;100.00;97995.31;5072245;28;20396;-75
2023/01/05 09:13:46;;;;;;;16.27;3.00;;;9.60;99.90;;;8.85;100.00;98004.16;5071771;28;20449;-75
2023/01/05 09:16:15;;;;;;;12.57;2.60;;;9.70;99.90;;;8.73;100.00;97998.03;5072068;28;20430;-75
2023/01/05 09:18:42;;;;;;;21.63;3.47;;;9.60;99.90;;;8.66;100.00;98008.66;5071892;28;20415;-75
2023/01/05 09:21:09;;;;;;;22.02;3.20;;;9.60;99.90;;;8.58;100.00;98013.44;5071910;28;20819;-75
2023/01/05 09:23:38;;;;;;;19.70;3.13;;;9.50;99.90;;;8.68;100.00;98019.00;5053043;28;20581;-75
2023/01/05 09:26:05;;;;;;;19.73;3.38;;;9.50;99.90;;;8.81;100.00;98019.63;5061006;28;20401;-75
2023/01/05 09:28:32;;;;;;;16.73;3.17;;;9.60;99.90;;;8.71;100.00;98032.56;5064212;28;20423;-76
2023/01/05 09:31:04;;;;;;;21.05;3.30;;;9.60;99.90;;;8.84;100.00;98026.31;5071544;28;20395;-75
2023/01/05 09:33:30;;;;;;;24.65;4.43;;;9.70;99.90;;;8.83;100.00;98035.25;5052752;28;20888;-76
2023/01/05 09:35:56;;;;;;;18.95;3.50;;;9.70;99.90;;;8.97;100.00;98022.66;5070747;28;20410;-76
2023/01/05 09:38:23;;;;;;;19.55;3.00;;;9.80;99.90;;;8.79;100.00;98013.78;5071692;28;20402;-75
2023/01/05 09:40:53;;;;;;;23.77;3.83;;;9.70;99.90;;;8.79;100.00;98021.72;5071625;28;20392;-75
2023/01/05 09:43:24;;;;;;;22.48;3.65;;;9.70;99.90;;;8.78;100.00;98024.56;5062553;28;20409;-75
2023/01/05 09:45:50;;;;;;;24.42;4.53;;;9.70;99.90;;;8.69;100.00;98016.16;5064136;28;20494;-76
2023/01/05 09:48:19;;;;;;;26.35;4.35;;;9.60;99.90;;;8.82;100.00;98015.16;5065011;28;20405;-75
2023/01/05 09:50:48;;;;;;;21.42;3.72;;;9.70;99.90;;;8.91;100.00;98021.75;5047282;28;20411;-74
2023/01/05 09:53:15;;;;;;;25.13;3.53;;;9.70;99.90;;;8.88;100.00;98043.28;5058950;28;20387;-75
2023/01/05 09:55:43;;;;;;;28.13;4.05;;;9.70;99.90;;;8.97;100.00;98038.50;5059783;28;20398;-74
2023/01/05 09:58:14;;;;;;;23.33;4.05;;;9.80;99.90;;;8.96;100.00;98026.34;5061016;28;20452;-75
2023/01/05 10:00:44;;;;;;;20.25;3.20;;;9.80;99.90;;;8.98;100.00;98030.38;5061765;28;20411;-76
2023/01/05 10:03:17;;;;;;;18.42;3.70;;;9.80;99.90;;;9.02;100.00;98036.81;5040853;28;20784;-76
2023/01/05 10:05:46;;;;;;;23.88;4.18;;;9.90;99.90;;;8.88;100.00;98038.00;5062385;28;20484;-76
2023/01/05 10:08:18;;;;;;;24.77;3.33;;;9.80;99.90;;;8.98;100.00;98032.19;5061022;28;20414;-76
2023/01/05 10:13:01;;;;;;;15.00;3.45;;;9.80;99.90;;;9.07;100.00;98039.59;5043367;28;20982;-74
2023/01/05 10:13:36;;;;;;;17.23;3.60;;;9.90;99.90;;;9.09;100.00;98036.72;5059810;28;20413;-75
2023/01/05 10:16:03;;;;;;;26.17;3.83;;;9.90;99.90;;;9.14;100.00;98037.66;5061518;28;20436;-74
2023/01/05 10:18:31;;;;;;;18.65;3.63;;;10.00;99.90;;;9.17;100.00;98023.97;5059460;28;20440;-76
2023/01/05 10:21:14;;;;;;;16.83;3.10;;;10.00;99.90;;;9.28;100.00;98025.06;5060472;28;20400;-74
2023/01/05 10:24:07;;;;;;;18.17;3.97;;;10.10;99.90;;;9.25;100.00;98018.38;5050201;28;20433;-73
2023/01/05 10:26:43;;;;;;;18.90;3.10;;;10.10;99.90;;;9.28;100.00;98025.88;5050616;28;20890;-74
2023/01/05 10:29:12;;;;;;;19.98;3.67;;;10.10;99.90;;;9.27;100.00;98023.44;5050604;28;20409;-73
2023/01/05 10:31:46;;;;;;;20.88;3.85;;;10.10;99.90;;;9.23;100.00;98017.81;5049961;28;20450;-74
2023/01/05 10:34:22;;;;;;;19.20;3.40;;;10.10;99.90;;;9.24;100.00;98016.00;5049734;28;20402;-72
2023/01/05 10:37:17;;;;;;;18.17;3.80;;;10.10;99.90;;;9.37;100.00;98023.69;5050259;28;20410;-73
2023/01/05 10:40:02;;;;;;;16.05;3.15;;;10.20;99.90;;;9.38;100.00;98014.75;5050489;28;20847;-74
2023/01/05 10:42:44;;;;;;;22.95;3.95;;;10.20;99.90;;;9.43;100.00;98016.69;5049685;28;20503;-74
2023/01/05 10:45:12;;;;;;;17.33;3.00;;;10.30;99.90;;;9.45;100.00;98019.91;5066045;22;20569;-75
2023/01/05 10:47:39;;;;;;;21.77;3.40;;;10.30;99.90;;;9.49;100.00;98024.50;5051824;28;20417;-75
2023/01/05 10:50:36;;;;;;;22.50;3.55;;;10.30;99.90;;;9.85;100.00;98034.06;5063594;28;20411;-74
2023/01/05 10:53:08;;;;;;;15.75;3.08;;;10.50;99.90;;;9.71;100.00;98030.84;5030912;28;20962;-74
2023/01/05 10:55:46;;;;;;;25.25;4.00;;;10.50;99.90;;;9.59;100.00;98029.25;5051806;28;20417;-74
2023/01/05 10:58:25;;;;;;;15.70;3.47;;;10.40;99.90;;;9.62;100.00;98019.00;5065379;28;20501;-74
2023/01/05 11:00:56;;;;;;;18.52;3.92;;;10.40;99.90;;;9.59;100.00;98018.66;5049482;28;20444;-73